Kezdőlap
METAR-TAF:

METAR-TAF

Repülőterek :

Hévíz, Magyarország

Hévíz-Balaton nemzetközi repülőtér

földrajzi szélesség: 46-41-11N, földrajzi hosszúság: 017-09-33E, magasság: 124 m

Jelenlegi meteorológiai megfigyelések

A jelentés 1 órával és 45 perccel ezelõtt készült, 15:45 UTC
Északi szél 10 kt
Hőmérséklet -6°C
Páratartalom 58%
Légköri nyomás 1022 hPa
Látótávolság 10 km, vagy több
felhőtlen 1500 m magasságban, és nincs gomolyfelhõ

METAR: LHSM 251545Z 36010KT CAVOK M06/M13 Q1022

Idő: 18:30 (17:30 UTC)

Előrejelzés

A jelentés 6 órával és 15 perccel ezelõtt készült, 11:15 UTC
Az előrejelzés 25-én 12 óra UTC és 25-én 21 óra UTC között érvényes
Északi szél 12 kt
Látótávolság 10 km, vagy több
felhőtlen 1500 m magasságban, és nincs gomolyfelhõ

TAF: LHSM 251115Z 2512/2521 36012KT CAVOK

Meteorológiai megfigyelések és előrejelzések több, mint 4000 repülőtéren (METAR és TAF jelentéseket).

A térképen piros és sárga pontok jelzik az elérhető meteorológiai állomásokat.

Mozgassa az egeret a pont fölött, hogy megjelenjen az állomás neve.

Azután kattintson az időjárási megfigyelések és előrejelzések megtekintéséhez.

A térkép megváltoztatása: kattintson a fekete keresztel jelölt zöld gombra ráközelítéshez, a vonallal jelölt zöld gombra távolításhoz, vagy a zöld nyilakra a szomszédos térképek eléréséhez.


METAR-TAF: